Hudson — CGDG — position and weather

sailwx.info

Track history (hours):
 
Tides and Currents Weather Stations Pressure Air Temp Water Temp Dewpoint Dewpoint Depression Visibility Wind Speed Wind Dir Waves Ship Positions

Oceanographic research ship Hudson (Canada)

Detailed information on ship capabilities available from University of Delaware's Ocean Information Center.

Last reported at 2015-Dec-06 15:17 UTC. Time now 2016-Feb-08 12:32 UTC.
Position N 47°24' W 052°36'.
Warning: this ship's position is months out of date.

Length 85.03 m; beam 15.2 m; draft 6.28 m.

Type: Ship. MMSI: 316024000.

Date/timePositionNaut miles runAvg speedWind from/ knotsBaromVisibWave heightAir tempDewpointWater temp
2015-Dec-06 15:17N 47°24' W 052°36'912.0
2015-Dec-06 14:31N 47°33' W 052°38'3 3.1
2015-Dec-06 13:30N 47°33' W 052°42'0 0.0
2015-Dec-06 12:33N 47°33' W 052°42'0 0.0
2015-Dec-06 11:22N 47°33' W 052°42'4 4.7
2015-Dec-06 10:30N 47°33' W 052°36'1 0.8
2015-Dec-06 09:32N 47°33' W 052°35'0 0.1
2015-Dec-06 08:32N 47°33' W 052°35'3 3.0
2015-Dec-06 07:29N 47°35' W 052°32'7 7.0
2015-Dec-06 06:31N 47°34' W 052°22'4 4.2
2015-Dec-06 05:31N 47°36' W 052°16'  
2015-Nov-27 02:19N 47°37' W 052°36'4 5.4
2015-Nov-27 01:31N 47°33' W 052°36'3 2.5
2015-Nov-27 00:21N 47°34' W 052°40'1 0.7
2015-Nov-26 23:30N 47°34' W 052°39'7 6.5
2015-Nov-26 22:22N 47°27' W 052°35'  
Track history (hours):
 
Tides and Currents Weather Stations Pressure Air Temp Water Temp Dewpoint Dewpoint Depression Visibility Wind Speed Wind Dir Waves Ship Positions

Oceanographic research ship Hudson (Canada)

Detailed information on ship capabilities available from University of Delaware's Ocean Information Center.

Last reported at 2015-Dec-06 15:17 UTC. Time now 2016-Feb-08 12:32 UTC.
Position N 47°24' W 052°36'.
Warning: this ship's position is months out of date.

Length 85.03 m; beam 15.2 m; draft 6.28 m.

Type: Ship. MMSI: 316024000.

Date/timePositionNaut miles runAvg speedWind from/ knotsBaromVisibWave heightAir tempDewpointWater temp
2015-Dec-06 15:17N 47°24' W 052°36'912.0
2015-Dec-06 14:31N 47°33' W 052°38'3 3.1
2015-Dec-06 13:30N 47°33' W 052°42'0 0.0
2015-Dec-06 12:33N 47°33' W 052°42'0 0.0
2015-Dec-06 11:22N 47°33' W 052°42'4 4.7
2015-Dec-06 10:30N 47°33' W 052°36'1 0.8
2015-Dec-06 09:32N 47°33' W 052°35'0 0.1
2015-Dec-06 08:32N 47°33' W 052°35'3 3.0
2015-Dec-06 07:29N 47°35' W 052°32'7 7.0
2015-Dec-06 06:31N 47°34' W 052°22'4 4.2
2015-Dec-06 05:31N 47°36' W 052°16'  
2015-Nov-27 02:19N 47°37' W 052°36'4 5.4
2015-Nov-27 01:31N 47°33' W 052°36'3 2.5
2015-Nov-27 00:21N 47°34' W 052°40'1 0.7
2015-Nov-26 23:30N 47°34' W 052°39'7 6.5
2015-Nov-26 22:22N 47°27' W 052°35'  

Dump ship's entire track history